Time;durP1;ratioP1;P1;durP2;ratioP2;P2;SDS_P1;SDS_P2;PMS_P1;PMS_P2;Temp;Humidity;BMP_temperature;BMP_pressure;BME280_temperature;BME280_humidity;BME280_pressure;Samples;Min_cycle;Max_cycle;Signal;HPM_P1;HPM_P2
2024/04/06 00:03:24;;;;;;;1999.90;999.90;;;;;;;13.86;100.00;101072.22;10437813;28;20045;-67
2024/04/06 00:08:26;;;;;;;1999.90;999.90;;;;;;;13.72;100.00;101067.91;10438660;28;20061;-67
2024/04/06 00:13:28;;;;;;;1999.90;999.90;;;;;;;13.52;100.00;101066.56;10438011;28;20049;-67
2024/04/06 00:18:29;;;;;;;1999.90;999.90;;;;;;;13.45;100.00;101073.19;10438204;28;20064;-67
2024/04/06 00:30:24;;;;;;;1999.90;999.90;;;;;;;13.02;100.00;101089.88;10456285;28;20041;-67
2024/04/06 00:35:25;;;;;;;1999.90;999.90;;;;;;;13.12;100.00;101091.94;10437566;28;20045;-67
2024/04/06 00:40:27;;;;;;;1999.90;999.90;;;;;;;13.01;100.00;101089.97;10437653;28;20060;-67
2024/04/06 00:45:28;;;;;;;1999.90;999.90;;;;;;;13.15;100.00;101094.38;10437785;28;20049;-67
2024/04/06 00:50:30;;;;;;;1999.90;999.90;;;;;;;13.01;100.00;101103.97;10437224;28;20491;-67
2024/04/06 00:55:31;;;;;;;1999.90;999.90;;;;;;;13.54;100.00;101098.88;10437763;28;20049;-67
2024/04/06 01:00:32;;;;;;;1999.90;999.90;;;;;;;13.36;100.00;101092.19;10442257;28;20446;-67
2024/04/06 01:05:34;;;;;;;1999.90;999.90;;;;;;;13.51;100.00;101095.63;10445763;28;20060;-67
2024/04/06 01:10:35;;;;;;;1999.90;999.90;;;;;;;13.62;100.00;101098.41;10445123;28;20067;-67
2024/04/06 01:15:37;;;;;;;1999.90;999.90;;;;;;;13.55;100.00;101100.59;10444760;28;20507;-67
2024/04/06 01:20:43;;;;;;;1999.90;999.90;;;;;;;13.61;100.00;101114.28;10428015;28;20459;-67
2024/04/06 01:25:45;;;;;;;1999.90;999.90;;;;;;;13.68;100.00;101103.22;10428907;28;20056;-67
2024/04/06 01:30:46;;;;;;;1999.90;999.90;;;;;;;13.54;100.00;101104.16;10443699;28;20412;-67
2024/04/06 01:35:47;;;;;;;1999.90;999.90;;;;;;;13.42;100.00;101094.44;10443787;28;20389;-67
2024/04/06 01:40:49;;;;;;;1999.90;999.90;;;;;;;13.59;100.00;101100.38;10443381;28;20061;-67
2024/04/06 01:45:50;;;;;;;1999.90;999.90;;;;;;;13.48;100.00;101090.53;10443206;28;20393;-67
2024/04/06 01:50:51;;;;;;;1999.90;999.90;;;;;;;13.75;100.00;101098.41;10443689;28;20045;-67
2024/04/06 01:55:53;;;;;;;1999.90;999.90;;;;;;;13.87;100.00;101095.00;10392941;23;20049;-67
2024/04/06 02:00:54;;;;;;;1999.90;999.90;;;;;;;13.61;100.00;101087.97;10418071;28;20484;-67
2024/04/06 02:05:57;;;;;;;1999.90;999.90;;;;;;;13.57;100.00;101092.59;10418616;28;20049;-67
2024/04/06 02:10:58;;;;;;;1999.90;999.90;;;;;;;13.70;100.00;101090.84;10400950;28;20481;-67
2024/04/06 02:15:59;;;;;;;1999.90;999.90;;;;;;;13.56;100.00;101088.25;10401259;28;20562;-67
2024/04/06 02:21:01;;;;;;;1999.90;999.90;;;;;;;13.76;100.00;101089.59;10401684;28;20107;-67
2024/04/06 02:26:02;;;;;;;1999.90;999.90;;;;;;;13.50;100.00;101079.00;10401389;28;20057;-67
2024/04/06 02:31:04;;;;;;;1999.90;999.90;;;;;;;13.51;100.00;101080.66;10416878;28;20053;-67
2024/04/06 02:36:05;;;;;;;1999.90;999.90;;;;;;;13.52;100.00;101087.63;10416923;28;20049;-67
2024/04/06 02:41:07;;;;;;;1999.90;999.90;;;;;;;13.42;100.00;101096.22;10384056;28;20049;-67
2024/04/06 02:46:09;;;;;;;1999.90;999.90;;;;;;;13.44;100.00;101094.34;10417086;28;20064;-67
2024/04/06 02:51:12;;;;;;;1999.90;999.90;;;;;;;13.40;100.00;101088.44;10416695;28;20052;-67
2024/04/06 02:56:13;;;;;;;1999.90;999.90;;;;;;;13.50;100.00;101073.72;10399685;28;20057;-67
2024/04/06 03:01:14;;;;;;;1999.90;999.90;;;;;;;13.35;100.00;101075.56;10416352;28;20095;-67
2024/04/06 03:06:16;;;;;;;1999.90;999.90;;;;;;;13.31;100.00;101066.16;10415619;28;20417;-67
2024/04/06 03:11:18;;;;;;;1999.90;999.90;;;;;;;13.19;100.00;101066.94;10415463;28;20485;-67
2024/04/06 03:16:20;;;;;;;1999.90;999.90;;;;;;;13.14;100.00;101053.25;10416088;28;20057;-67
2024/04/06 03:21:21;;;;;;;1999.90;999.90;;;;;;;13.19;100.00;101054.63;10415067;28;20057;-67
2024/04/06 03:26:23;;;;;;;1999.90;999.90;;;;;;;13.12;100.00;101045.47;10415183;28;20439;-67
2024/04/06 03:31:24;;;;;;;1999.90;999.90;;;;;;;12.72;100.00;101039.25;10415368;28;20052;-67
2024/04/06 03:36:25;;;;;;;1999.90;999.90;;;;;;;12.73;100.00;101033.91;10414998;28;20049;-67
2024/04/06 03:41:27;;;;;;;1999.90;999.90;;;;;;;12.84;100.00;101020.09;10415244;28;20054;-67
2024/04/06 03:46:29;;;;;;;1999.90;999.90;;;;;;;12.69;100.00;101018.44;10414955;28;20053;-67
2024/04/06 03:51:31;;;;;;;1999.90;999.90;;;;;;;12.78;100.00;101016.06;10398522;28;20049;-67
2024/04/06 03:56:32;;;;;;;1999.90;999.90;;;;;;;12.61;100.00;101035.53;10414352;28;20107;-67
2024/04/06 04:01:34;;;;;;;1999.90;999.90;;;;;;;12.45;100.00;101048.75;10414471;28;20099;-67
2024/04/06 04:06:35;;;;;;;1999.90;999.90;;;;;;;12.39;100.00;101057.00;10397386;28;20404;-67
2024/04/06 04:11:37;;;;;;;1999.90;999.90;;;;;;;12.44;100.00;101056.75;10414031;28;20041;-67
2024/04/06 04:16:38;;;;;;;1999.90;999.90;;;;;;;12.39;100.00;101048.28;10397876;28;20053;-67
2024/04/06 04:21:39;;;;;;;1999.90;999.90;;;;;;;12.47;100.00;101043.41;10396926;28;20440;-67
2024/04/06 04:26:41;;;;;;;1999.90;999.90;;;;;;;12.38;100.00;101046.59;10414213;28;20049;-67
2024/04/06 04:31:42;;;;;;;1999.90;999.90;;;;;;;12.54;100.00;101055.25;10414451;28;20057;-67
2024/04/06 04:36:44;;;;;;;1999.90;999.90;;;;;;;12.53;100.00;101052.69;10405861;28;20057;-67
2024/04/06 04:41:45;;;;;;;1999.90;999.90;;;;;;;12.58;100.00;101053.25;10421845;28;20053;-67
2024/04/06 04:46:47;;;;;;;1999.90;999.90;;;;;;;12.56;100.00;101047.28;10404924;28;20443;-67
2024/04/06 04:51:48;;;;;;;1999.90;999.90;;;;;;;12.59;100.00;101055.78;10421259;28;20046;-67
2024/04/06 04:56:49;;;;;;;1999.90;999.90;;;;;;;12.62;100.00;101054.75;10420410;28;20390;-67
2024/04/06 05:01:51;;;;;;;1999.90;999.90;;;;;;;12.57;100.00;101044.53;10420971;28;20052;-67
2024/04/06 05:06:52;;;;;;;1999.90;999.90;;;;;;;12.65;100.00;101044.06;10420842;28;20057;-67
2024/04/06 05:11:54;;;;;;;1999.90;999.90;;;;;;;12.78;100.00;101031.00;10420496;28;20061;-67
2024/04/06 05:16:55;;;;;;;1999.90;999.90;;;;;;;12.69;100.00;101005.31;10419867;28;20193;-67
2024/04/06 05:21:57;;;;;;;1999.90;999.90;;;;;;;12.64;100.00;100997.69;10420646;28;20049;-67
2024/04/06 05:26:58;;;;;;;1999.90;999.90;;;;;;;12.77;100.00;100988.09;10419931;28;20057;-67
2024/04/06 05:32:00;;;;;;;1999.90;999.90;;;;;;;12.90;100.00;100985.56;10420101;28;20061;-67
2024/04/06 05:37:01;;;;;;;1999.90;999.90;;;;;;;13.04;100.00;100994.31;10403628;28;20053;-67
2024/04/06 05:42:03;;;;;;;1999.90;999.90;;;;;;;13.02;100.00;100984.75;10419480;28;20128;-67
2024/04/06 05:47:04;;;;;;;1999.90;999.90;;;;;;;13.05;100.00;101002.13;10418471;28;20049;-67
2024/04/06 05:52:06;;;;;;;1999.90;999.90;;;;;;;13.05;100.00;101022.31;10418551;28;20052;-67
2024/04/06 05:57:07;;;;;;;1999.90;999.90;;;;;;;13.27;100.00;101033.13;10418465;28;20057;-67
2024/04/06 06:02:08;;;;;;;1999.90;999.90;;;;;;;13.11;100.00;101014.00;10418833;28;20060;-67
2024/04/06 06:07:10;;;;;;;1999.90;999.90;;;;;;;13.26;100.00;100986.72;10418318;28;20459;-67
2024/04/06 06:12:11;;;;;;;1999.90;999.90;;;;;;;13.33;100.00;100980.16;10417679;28;20127;-67
2024/04/06 06:17:13;;;;;;;1999.90;999.90;;;;;;;13.40;100.00;100980.59;10417650;28;20416;-67
2024/04/06 06:22:14;;;;;;;1999.90;999.90;;;;;;;13.49;100.00;100969.47;10417648;28;20049;-67
2024/04/06 06:27:16;;;;;;;1999.90;999.90;;;;;;;13.59;100.00;100966.22;10385215;28;20053;-67
2024/04/06 06:32:18;;;;;;;1999.90;999.90;;;;;;;13.72;100.00;100967.09;10384942;28;20103;-66
2024/04/06 06:37:19;;;;;;;1999.90;999.90;;;;;;;13.89;100.00;100961.50;10384756;28;20088;-67
2024/04/06 06:42:21;;;;;;;1999.90;999.90;;;;;;;14.10;100.00;100953.91;10400095;28;20501;-67
2024/04/06 06:47:24;;;;;;;1999.90;999.90;;;;;;;14.30;100.00;100955.13;10400808;28;20053;-67
2024/04/06 06:52:25;;;;;;;1999.90;999.90;;;;;;;14.42;100.00;100955.22;10418497;28;20057;-67
2024/04/06 06:57:27;;;;;;;1999.90;999.90;;;;;;;14.45;100.00;100953.19;10439659;28;20061;-67
2024/04/06 07:02:28;;;;;;;1999.90;999.90;;;;;;;14.78;100.00;100950.94;10441250;28;20061;-67
2024/04/06 07:07:30;;;;;;;1999.90;999.90;;;;;;;15.03;100.00;100945.53;10440926;28;20069;-67
2024/04/06 07:12:34;;;;;;;1999.90;999.90;;;;;;;15.32;100.00;100939.06;10440616;28;20052;-67
2024/04/06 07:17:35;;;;;;;1999.90;999.90;;;;;;;15.28;100.00;100953.41;10440152;28;20057;-67
2024/04/06 07:22:39;;;;;;;1999.90;999.90;;;;;;;15.53;100.00;100950.63;10440700;28;20045;-67
2024/04/06 07:27:41;;;;;;;1999.90;999.90;;;;;;;15.92;100.00;100932.72;10440472;28;20061;-67
2024/04/06 07:32:42;;;;;;;1999.90;999.90;;;;;;;16.44;97.07;100926.91;10423151;28;20056;-67
2024/04/06 07:37:44;;;;;;;1999.90;999.90;;;;;;;16.76;93.64;100934.91;10423657;28;20111;-67
2024/04/06 07:42:45;;;;;;;1999.90;999.90;;;;;;;17.19;87.85;100920.78;10439292;28;20044;-67
2024/04/06 07:47:47;;;;;;;1999.90;999.90;;;;;;;17.60;85.81;100910.31;10438926;28;20495;-67
2024/04/06 07:52:49;;;;;;;1999.90;999.90;;;;;;;17.83;82.38;100903.88;10438840;28;20052;-67
2024/04/06 07:57:50;;;;;;;1999.90;999.90;;;;;;;18.23;79.84;100893.47;10439202;28;20434;-67
2024/04/06 08:02:52;;;;;;;1999.90;999.90;;;;;;;18.07;79.45;100902.78;10439605;28;20045;-67
2024/04/06 08:07:53;;;;;;;1999.90;999.90;;;;;;;19.08;77.50;100897.31;10422515;28;20056;-67
2024/04/06 08:12:55;;;;;;;1999.90;999.90;;;;;;;18.82;76.47;100897.03;10406169;28;20052;-67
2024/04/06 08:17:56;;;;;;;1999.90;999.90;;;;;;;19.31;74.69;100893.38;10438423;28;20401;-68
2024/04/06 08:22:58;;;;;;;1999.90;999.90;;;;;;;19.39;73.35;100886.53;10421765;28;20049;-68
2024/04/06 08:27:59;;;;;;;1999.90;999.90;;;;;;;19.06;73.51;100884.22;10422053;28;20049;-68
2024/04/06 08:33:01;;;;;;;1999.90;999.90;;;;;;;19.98;72.26;100863.28;10438282;28;20054;-68
2024/04/06 08:38:03;;;;;;;1999.90;999.90;;;;;;;19.94;70.41;100852.13;10438330;28;20049;-68
2024/04/06 08:43:11;;;;;;;1999.90;999.90;;;;;;;20.32;70.00;100873.31;10438431;28;20049;-68
2024/04/06 08:48:13;;;;;;;1999.90;999.90;;;;;;;20.15;68.33;100853.69;10421601;28;20064;-69
2024/04/06 08:53:14;;;;;;;1999.90;999.90;;;;;;;20.76;67.25;100866.28;10421360;28;20068;-69
2024/04/06 08:58:16;;;;;;;1999.90;999.90;;;;;;;20.82;66.61;100859.50;10438146;28;20049;-69
2024/04/06 09:03:17;;;;;;;1999.90;999.90;;;;;;;21.88;66.54;100861.19;10437537;28;20045;-69
2024/04/06 09:08:18;;;;;;;1999.90;999.90;;;;;;;21.70;64.21;100850.63;10437857;28;20063;-69
2024/04/06 09:13:21;;;;;;;1999.90;999.90;;;;;;;22.65;64.46;100845.06;10436934;28;20393;-69
2024/04/06 09:18:22;;;;;;;1999.90;999.90;;;;;;;22.15;61.07;100833.47;10437831;28;20068;-69
2024/04/06 09:23:25;;;;;;;1999.90;999.90;;;;;;;22.62;60.13;100824.06;10444947;28;20061;-69
2024/04/06 09:28:27;;;;;;;1999.90;999.90;;;;;;;23.73;60.05;100812.66;10428303;28;20053;-69
2024/04/06 09:33:30;;;;;;;1999.90;999.90;;;;;;;23.94;58.59;100813.97;10444611;28;20045;-69
2024/04/06 09:38:31;;;;;;;1999.90;999.90;;;;;;;22.31;59.71;100806.03;10444602;28;20053;-69
2024/04/06 09:43:33;;;;;;;1999.90;999.90;;;;;;;22.67;60.04;100796.88;10443415;28;20052;-69
2024/04/06 09:48:35;;;;;;;1999.90;999.90;;;;;;;22.87;61.72;100797.38;10427263;28;20463;-69
2024/04/06 09:53:38;;;;;;;1999.90;999.90;;;;;;;23.79;60.36;100787.09;10426989;28;20061;-69
2024/04/06 09:58:47;;;;;;;1999.90;999.90;;;;;;;21.84;60.37;100780.75;10443514;28;20060;-69
2024/04/06 10:03:49;;;;;;;1999.90;999.90;;;;;;;22.86;60.92;100779.69;10426850;28;20049;-68
2024/04/06 10:08:52;;;;;;;1999.90;999.90;;;;;;;22.30;63.32;100776.84;10426410;28;20057;-68
2024/04/06 10:14:05;;;;;;;1999.90;999.90;;;;;;;22.76;59.38;100759.34;10425764;28;20548;-68
2024/04/06 10:19:08;;;;;;;1999.90;999.90;;;;;;;23.53;58.31;100744.63;10426446;28;20095;-68
2024/04/06 10:24:10;;;;;;;1999.90;999.90;;;;;;;23.78;57.96;100744.50;10426305;28;20214;-68
2024/04/06 10:29:13;;;;;;;1999.90;999.90;;;;;;;23.88;57.79;100723.75;10425525;28;20415;-68
2024/04/06 10:34:16;;;;;;;1999.90;999.90;;;;;;;24.38;57.00;100718.88;10424922;28;20052;-68
2024/04/06 10:39:17;;;;;;;1999.90;999.90;;;;;;;25.97;54.27;100719.38;10424811;28;20408;-68
2024/04/06 10:44:19;;;;;;;1999.90;999.90;;;;;;;24.91;54.38;100741.13;10424992;28;20044;-68
2024/04/06 10:49:21;;;;;;;1999.90;999.90;;;;;;;24.13;55.28;100732.44;10440852;28;20436;-68
2024/04/06 10:54:23;;;;;;;1999.90;999.90;;;;;;;23.45;55.08;100737.50;10424138;28;20144;-68
2024/04/06 10:59:24;;;;;;;1999.90;999.90;;;;;;;23.24;53.80;100724.72;10440753;28;20420;-68
2024/04/06 11:04:25;;;;;;;1999.90;999.90;;;;;;;23.70;54.52;100715.97;10440324;28;20476;-68
2024/04/06 11:09:27;;;;;;;1999.90;999.90;;;;;;;25.01;54.75;100708.72;10440673;28;20053;-69
2024/04/06 11:14:29;;;;;;;1999.90;999.90;;;;;;;25.03;55.87;100698.63;10423833;28;20107;-68
2024/04/06 11:19:31;;;;;;;1999.90;999.90;;;;;;;26.51;50.57;100683.09;10440093;28;20049;-68
2024/04/06 11:24:32;;;;;;;1999.90;999.90;;;;;;;25.63;50.29;100667.22;10439834;28;20404;-69
2024/04/06 11:29:34;;;;;;;1999.90;999.90;;;;;;;26.88;50.19;100647.00;10440221;28;20052;-69
2024/04/06 11:34:35;;;;;;;1999.90;999.90;;;;;;;26.78;45.76;100641.16;10439287;28;20048;-69
2024/04/06 11:39:36;;;;;;;1999.90;999.90;;;;;;;26.74;48.20;100650.63;10439820;28;20053;-69
2024/04/06 11:44:38;;;;;;;1999.90;999.90;;;;;;;26.99;46.87;100655.53;10439009;28;20060;-69
2024/04/06 11:49:39;;;;;;;1999.90;999.90;;;;;;;27.20;48.90;100662.63;10439217;28;20060;-69
2024/04/06 11:54:42;;;;;;;1999.90;999.90;;;;;;;25.60;47.28;100662.25;10421937;28;20076;-67
2024/04/06 11:59:43;;;;;;;1999.90;999.90;;;;;;;25.27;46.41;100654.69;10439342;28;20060;-65
2024/04/06 12:04:44;;;;;;;1999.90;999.90;;;;;;;26.16;44.79;100652.69;10438825;28;20071;-65
2024/04/06 12:09:46;;;;;;;1999.90;999.90;;;;;;;27.21;46.75;100643.59;10422355;28;20053;-65
2024/04/06 12:14:47;;;;;;;1999.90;999.90;;;;;;;26.99;44.04;100618.72;10438166;28;20068;-65
2024/04/06 12:19:49;;;;;;;1999.90;999.90;;;;;;;27.65;46.82;100616.44;10438528;28;20045;-64
2024/04/06 12:24:51;;;;;;;1999.90;999.90;;;;;;;27.05;44.34;100604.50;10438023;28;20053;-65
2024/04/06 12:29:53;;;;;;;1999.90;999.90;;;;;;;27.23;40.63;100582.44;10422258;28;20048;-64
2024/04/06 12:34:55;;;;;;;1999.90;999.90;;;;;;;27.13;40.21;100579.28;10438125;28;20103;-65
2024/04/06 12:39:56;;;;;;;1999.90;999.90;;;;;;;27.64;41.08;100561.00;10421987;28;20057;-64
2024/04/06 12:44:58;;;;;;;1999.90;999.90;;;;;;;27.64;41.36;100556.47;10437513;28;20443;-64
2024/04/06 12:49:59;;;;;;;1999.90;999.90;;;;;;;27.15;39.50;100571.03;10438285;28;20053;-65
2024/04/06 12:55:01;;;;;;;1999.90;999.90;;;;;;;26.64;40.07;100594.59;10439892;28;20057;-66
2024/04/06 13:00:06;;;;;;;1999.90;999.90;;;;;;;26.22;40.43;100625.91;10445890;28;20049;-66
2024/04/06 13:05:08;;;;;;;1999.90;999.90;;;;;;;26.25;41.42;100636.25;10444957;28;20412;-66
2024/04/06 13:10:10;;;;;;;1999.90;999.90;;;;;;;26.26;40.37;100655.84;10428362;28;20053;-67
2024/04/06 13:15:12;;;;;;;1999.90;999.90;;;;;;;26.11;42.01;100672.06;10428271;28;20048;-66
2024/04/06 13:25:20;;;;;;;1999.90;999.90;;;;;;;26.10;46.80;100683.81;10428214;28;20492;-66
2024/04/06 13:30:22;;;;;;;1999.90;999.90;;;;;;;26.47;45.30;100685.34;10444747;28;20049;-66
2024/04/06 13:35:23;;;;;;;1999.90;999.90;;;;;;;26.93;40.25;100681.31;10444114;28;20431;-67
2024/04/06 13:40:25;;;;;;;1999.90;999.90;;;;;;;28.15;41.40;100666.16;10444479;28;20060;-67
2024/04/06 13:45:26;;;;;;;1999.90;999.90;;;;;;;27.12;39.98;100665.47;10444291;28;20090;-65
2024/04/06 13:50:27;;;;;;;1999.90;999.90;;;;;;;27.43;39.94;100663.13;10426864;28;20055;-66
2024/04/06 13:55:29;;;;;;;1999.90;999.90;;;;;;;27.99;38.90;100636.97;10442943;28;20443;-66
2024/04/06 14:00:30;;;;;;;1999.90;999.90;;;;;;;27.47;40.45;100649.28;10443635;28;20061;-64
2024/04/06 14:05:32;;;;;;;1999.90;999.90;;;;;;;27.42;40.06;100648.06;10442597;28;20048;-64
2024/04/06 14:10:33;;;;;;;1999.90;999.90;;;;;;;28.32;41.39;100645.03;10449997;22;20057;-73
2024/04/06 14:15:34;;;;;;;1999.90;999.90;;;;;;;28.38;38.39;100647.94;10426050;28;20056;-73
2024/04/06 14:20:36;;;;;;;1999.90;999.90;;;;;;;27.46;41.97;100650.34;10425825;28;20582;-72
2024/04/06 14:25:37;;;;;;;1999.90;999.90;;;;;;;27.66;38.07;100624.31;10425451;28;20500;-70
2024/04/06 14:30:39;;;;;;;1999.90;999.90;;;;;;;27.87;37.97;100628.66;10425036;28;20514;-71
2024/04/06 14:35:40;;;;;;;1999.90;999.90;;;;;;;28.12;41.05;100634.28;10425042;28;20060;-70
2024/04/06 14:40:41;;;;;;;1999.90;999.90;;;;;;;28.63;40.65;100629.25;10441655;28;20106;-71
2024/04/06 14:45:43;;;;;;;1999.90;999.90;;;;;;;27.97;37.34;100625.59;10441566;28;20060;-71
2024/04/06 14:50:44;;;;;;;1999.90;999.90;;;;;;;27.59;38.89;100631.56;10441205;28;20412;-70
2024/04/06 14:55:46;;;;;;;1999.90;999.90;;;;;;;27.45;38.51;100627.16;10440583;28;20072;-71
2024/04/06 15:00:49;;;;;;;1999.90;999.90;;;;;;;26.86;37.56;100616.00;10424305;28;20049;-71
2024/04/06 15:05:50;;;;;;;1999.90;999.90;;;;;;;27.55;37.13;100624.91;10424236;28;20056;-69
2024/04/06 15:10:52;;;;;;;1999.90;999.90;;;;;;;27.13;36.47;100621.47;10440564;28;20061;-70
2024/04/06 15:15:53;;;;;;;1999.90;999.90;;;;;;;26.89;37.26;100629.03;10439782;28;20045;-72
2024/04/06 15:20:55;;;;;;;1999.90;999.90;;;;;;;27.28;37.67;100632.88;10422855;28;20057;-72
2024/04/06 15:25:57;;;;;;;1999.90;999.90;;;;;;;26.62;37.37;100628.84;10439436;28;20115;-72
2024/04/06 15:30:59;;;;;;;1999.90;999.90;;;;;;;26.14;40.48;100651.03;10422795;28;20061;-68
2024/04/06 15:36:00;;;;;;;1999.90;999.90;;;;;;;26.69;39.56;100648.53;10439017;28;20404;-68
2024/04/06 15:41:03;;;;;;;1999.90;999.90;;;;;;;26.05;39.60;100654.06;10439303;28;20053;-68
2024/04/06 15:46:05;;;;;;;1999.90;999.90;;;;;;;26.37;42.17;100662.56;10423319;28;20059;-71
2024/04/06 15:51:06;;;;;;;1999.90;999.90;;;;;;;26.48;37.54;100659.34;10439171;28;20064;-71
2024/04/06 15:56:07;;;;;;;1999.90;999.90;;;;;;;26.77;36.95;100654.78;10438558;28;20049;-70
2024/04/06 16:01:09;;;;;;;1999.90;999.90;;;;;;;26.21;38.55;100660.97;10422595;28;20064;-69
2024/04/06 16:06:10;;;;;;;1999.90;999.90;;;;;;;26.31;42.98;100656.94;10438138;28;20115;-69
2024/04/06 16:11:14;;;;;;;1999.90;999.90;;;;;;;25.81;39.81;100653.41;10438121;28;20072;-69
2024/04/06 16:16:16;;;;;;;1999.90;999.90;;;;;;;26.19;39.96;100663.84;10421565;28;20049;-69
2024/04/06 16:21:19;;;;;;;1999.90;999.90;;;;;;;26.26;40.24;100667.44;10422277;28;20057;-69
2024/04/06 16:26:21;;;;;;;1999.90;999.90;;;;;;;25.47;43.56;100675.50;10422413;28;20057;-69
2024/04/06 16:31:22;;;;;;;1999.90;999.90;;;;;;;25.47;44.06;100678.19;10445085;28;20057;-70
2024/04/06 16:36:24;;;;;;;1999.90;999.90;;;;;;;25.32;45.78;100687.09;10446770;28;20061;-69
2024/04/06 16:41:25;;;;;;;1999.90;999.90;;;;;;;25.38;44.17;100682.81;10429389;28;20470;-70
2024/04/06 16:46:27;;;;;;;1999.90;999.90;;;;;;;24.74;46.05;100680.75;10429889;28;20106;-69
2024/04/06 16:51:30;;;;;;;1999.90;999.90;;;;;;;24.45;42.59;100672.47;10446294;28;20060;-69
2024/04/06 16:56:31;;;;;;;1999.90;999.90;;;;;;;24.60;44.25;100683.22;10445662;28;20071;-69
2024/04/06 17:01:33;;;;;;;1999.90;999.90;;;;;;;23.92;44.17;100684.94;10445131;28;20407;-69
2024/04/06 17:06:34;;;;;;;1999.90;999.90;;;;;;;23.73;44.85;100695.06;10445264;28;20055;-69
2024/04/06 17:11:36;;;;;;;1999.90;999.90;;;;;;;23.68;46.84;100701.94;10444524;28;20056;-69
2024/04/06 17:16:37;;;;;;;1999.90;999.90;;;;;;;23.61;44.30;100709.84;10428274;28;20052;-69
2024/04/06 17:21:39;;;;;;;1999.90;999.90;;;;;;;23.49;42.90;100714.75;10444355;28;20489;-69
2024/04/06 17:26:40;;;;;;;1999.90;999.90;;;;;;;23.35;45.56;100719.00;10444283;28;20408;-69
2024/04/06 17:31:42;;;;;;;1999.90;999.90;;;;;;;22.87;45.16;100726.13;10444104;28;20053;-69
2024/04/06 17:36:43;;;;;;;1999.90;999.90;;;;;;;22.88;44.74;100724.28;10443915;28;20061;-69
2024/04/06 17:41:45;;;;;;;1999.90;999.90;;;;;;;22.81;44.76;100724.13;10443303;28;20107;-69
2024/04/06 17:46:47;;;;;;;1999.90;999.90;;;;;;;22.75;44.68;100728.31;10444412;28;20053;-69
2024/04/06 17:51:49;;;;;;;1999.90;999.90;;;;;;;22.46;45.31;100728.88;10443948;28;20049;-69
2024/04/06 17:56:50;;;;;;;1999.90;999.90;;;;;;;21.76;49.75;100755.91;10443278;28;20484;-69
2024/04/06 18:01:51;;;;;;;1999.90;999.90;;;;;;;21.74;50.13;100755.22;10443177;28;20506;-69
2024/04/06 18:06:53;;;;;;;1999.90;999.90;;;;;;;21.12;52.07;100756.28;10442808;28;20407;-69
2024/04/06 18:11:54;;;;;;;1999.90;999.90;;;;;;;20.79;53.74;100761.38;10442189;28;20381;-69
2024/04/06 18:16:56;;;;;;;1999.90;999.90;;;;;;;20.42;56.33;100763.25;10442860;28;20049;-69
2024/04/06 18:21:57;;;;;;;1999.90;999.90;;;;;;;20.03;57.27;100760.88;10426496;28;20052;-69
2024/04/06 18:26:59;;;;;;;1999.90;999.90;;;;;;;19.86;58.34;100757.19;10442669;28;20049;-69
2024/04/06 18:32:00;;;;;;;1999.90;999.90;;;;;;;20.12;55.97;100753.81;10442131;28;20103;-69
2024/04/06 18:37:06;;;;;;;1999.90;999.90;;;;;;;19.61;59.73;100757.88;10442281;28;20053;-69
2024/04/06 18:42:07;;;;;;;1999.90;999.90;;;;;;;19.36;60.95;100751.44;10425406;28;20049;-69
2024/04/06 18:47:09;;;;;;;1999.90;999.90;;;;;;;19.05;62.15;100763.13;10425429;28;20126;-69
2024/04/06 18:52:10;;;;;;;1999.90;999.90;;;;;;;18.92;63.48;100774.06;10424303;28;20400;-69
2024/04/06 18:57:12;;;;;;;1999.90;999.90;;;;;;;18.55;65.37;100777.44;10440497;28;20496;-69
2024/04/06 19:02:13;;;;;;;1999.90;999.90;;;;;;;18.47;65.37;100787.06;10440723;28;20048;-69
2024/04/06 19:07:14;;;;;;;1999.90;999.90;;;;;;;18.24;66.25;100787.34;10440957;28;20115;-69
2024/04/06 19:12:17;;;;;;;1999.90;999.90;;;;;;;18.26;68.24;100792.50;10439812;28;20071;-69
2024/04/06 19:17:18;;;;;;;1999.90;999.90;;;;;;;17.97;68.79;100793.28;10423529;28;20049;-69
2024/04/06 19:22:20;;;;;;;1999.90;999.90;;;;;;;17.86;70.42;100777.50;10423504;28;20056;-69
2024/04/06 19:27:21;;;;;;;1999.90;999.90;;;;;;;17.61;71.83;100766.41;10440389;28;20101;-69
2024/04/06 19:32:23;;;;;;;1999.90;999.90;;;;;;;17.31;73.15;100764.63;10439527;28;20053;-69
2024/04/06 19:37:24;;;;;;;1999.90;999.90;;;;;;;17.31;73.51;100752.22;10439645;28;20045;-69
2024/04/06 19:42:26;;;;;;;1999.90;999.90;;;;;;;17.15;74.35;100755.34;10438943;28;20511;-69
2024/04/06 19:47:27;;;;;;;1999.90;999.90;;;;;;;16.94;76.54;100763.31;10438935;28;20385;-69
2024/04/06 19:52:29;;;;;;;1999.90;999.90;;;;;;;17.16;73.86;100758.84;10438951;28;20057;-69
2024/04/06 19:57:33;;;;;;;1999.90;999.90;;;;;;;16.92;75.19;100757.31;10438450;28;20487;-69
2024/04/06 20:02:34;;;;;;;1999.90;999.90;;;;;;;16.94;75.21;100765.13;10438802;28;20045;-69
2024/04/06 20:07:36;;;;;;;1999.90;999.90;;;;;;;16.79;75.28;100765.41;10438702;28;20134;-69
2024/04/06 20:12:37;;;;;;;1999.90;999.90;;;;;;;16.70;77.00;100761.72;10437808;28;20072;-69
2024/04/06 20:17:39;;;;;;;1999.90;999.90;;;;;;;16.63;79.66;100760.56;10438634;28;20049;-69
2024/04/06 20:28:00;;;;;;;1999.90;999.90;;;;;;;16.91;75.39;100750.34;10438654;28;20067;-69
2024/04/06 20:33:01;;;;;;;1999.90;999.90;;;;;;;16.72;78.19;100764.25;10437907;28;20064;-69
2024/04/06 20:38:03;;;;;;;1999.90;999.90;;;;;;;16.78;77.79;100757.59;10438496;28;20061;-69
2024/04/06 20:43:05;;;;;;;1999.90;999.90;;;;;;;16.83;76.91;100753.63;10437876;28;20049;-69
2024/04/06 20:48:07;;;;;;;1999.90;999.90;;;;;;;16.75;78.42;100750.78;10438014;28;20053;-69
2024/04/06 20:53:09;;;;;;;1999.90;999.90;;;;;;;16.63;80.45;100755.28;10421304;28;20045;-69
2024/04/06 20:58:10;;;;;;;1999.90;999.90;;;;;;;16.64;81.45;100758.75;10421491;28;20053;-69
2024/04/06 21:03:12;;;;;;;1999.90;999.90;;;;;;;16.85;79.89;100761.47;10437119;28;20075;-69
2024/04/06 21:08:13;;;;;;;1999.90;999.90;;;;;;;16.68;81.55;100763.69;10436786;28;20389;-69
2024/04/06 21:13:15;;;;;;;1999.90;999.90;;;;;;;16.77;80.60;100761.22;10437196;28;20052;-69
2024/04/06 21:18:16;;;;;;;1999.90;999.90;;;;;;;17.00;78.72;100748.75;10443534;28;20045;-68
2024/04/06 21:23:17;;;;;;;1999.90;999.90;;;;;;;17.09;79.05;100740.00;10445127;28;20056;-68
2024/04/06 21:28:19;;;;;;;1999.90;999.90;;;;;;;16.77;83.03;100745.38;10444865;28;20095;-68
2024/04/06 21:33:20;;;;;;;1999.90;999.90;;;;;;;16.58;85.84;100725.78;10427795;28;20087;-68
2024/04/06 21:38:21;;;;;;;1999.90;999.90;;;;;;;16.87;82.16;100723.31;10444383;28;20068;-68
2024/04/06 21:43:23;;;;;;;1999.90;999.90;;;;;;;16.60;85.26;100705.31;10443906;28;20052;-68
2024/04/06 21:48:24;;;;;;;1999.90;999.90;;;;;;;16.96;82.30;100716.41;10427665;28;20053;-68
2024/04/06 21:53:26;;;;;;;1999.90;999.90;;;;;;;16.98;83.12;100701.25;10427145;28;20060;-68
2024/04/06 21:58:27;;;;;;;1999.90;999.90;;;;;;;17.14;80.86;100702.59;10443214;28;20123;-68
2024/04/06 22:03:29;;;;;;;1999.90;999.90;;;;;;;16.94;83.24;100709.59;10442966;28;20511;-68